createdAt,value
2018-10-11T00:01:55.989Z,18.33
2018-10-11T00:04:24.798Z,16.20
2018-10-11T00:06:53.584Z,19.50
2018-10-11T00:09:22.549Z,17.03
2018-10-11T00:11:51.297Z,17.70
2018-10-11T00:14:20.118Z,20.00
2018-10-11T00:16:48.945Z,19.43
2018-10-11T00:19:17.720Z,28.07
2018-10-11T00:21:46.476Z,37.03
2018-10-11T00:24:15.193Z,33.43
2018-10-11T00:26:43.941Z,36.60
2018-10-11T00:29:12.714Z,31.93
2018-10-11T00:31:41.453Z,32.17
2018-10-11T00:34:10.234Z,38.40
2018-10-11T00:36:39.057Z,30.00
2018-10-11T00:39:08.630Z,27.70
2018-10-11T00:41:37.416Z,25.37
2018-10-11T00:44:06.215Z,28.53
2018-10-11T00:46:35.030Z,32.10
2018-10-11T00:49:03.917Z,32.13
2018-10-11T00:51:32.719Z,27.80
2018-10-11T00:54:01.615Z,24.40
2018-10-11T00:56:30.450Z,23.90
2018-10-11T00:58:59.337Z,24.50
2018-10-11T01:01:28.248Z,26.00
2018-10-11T01:03:57.445Z,24.50
2018-10-11T01:06:26.371Z,20.50
2018-10-11T01:08:55.162Z,21.63
2018-10-11T01:11:23.961Z,22.43
2018-10-11T01:13:52.741Z,29.20
2018-10-11T01:16:21.509Z,25.33
2018-10-11T01:18:50.321Z,21.67
2018-10-11T01:21:19.094Z,24.17
2018-10-11T01:23:47.988Z,29.50
2018-10-11T01:26:16.970Z,23.97
2018-10-11T01:28:45.773Z,27.53
2018-10-11T01:31:20.469Z,25.20
2018-10-11T01:33:49.356Z,26.37
2018-10-11T01:36:18.133Z,27.73
2018-10-11T01:38:48.995Z,28.40
2018-10-11T01:41:18.082Z,26.50
2018-10-11T01:43:46.825Z,24.80
2018-10-11T01:46:15.687Z,25.93
2018-10-11T01:48:44.892Z,23.53
2018-10-11T01:51:13.707Z,21.20
2018-10-11T01:53:42.513Z,23.97
2018-10-11T01:56:11.333Z,21.43
2018-10-11T01:58:40.123Z,23.60
2018-10-11T02:01:08.877Z,23.57
2018-10-11T02:03:37.670Z,22.57
2018-10-11T02:06:06.516Z,23.73
2018-10-11T02:08:35.279Z,23.00
2018-10-11T02:11:04.073Z,23.10
2018-10-11T02:13:33.197Z,21.63
2018-10-11T02:16:01.996Z,21.30
2018-10-11T02:18:30.769Z,24.40
2018-10-11T02:20:59.562Z,21.63
2018-10-11T02:23:28.347Z,21.57
2018-10-11T02:25:57.219Z,21.27
2018-10-11T02:28:26.026Z,25.03
2018-10-11T02:30:54.867Z,21.60
2018-10-11T02:33:23.713Z,26.13
2018-10-11T02:35:52.464Z,21.47
2018-10-11T02:38:21.332Z,27.90
2018-10-11T02:40:50.153Z,19.17
2018-10-11T02:43:18.972Z,20.60
2018-10-11T02:45:47.778Z,23.73
2018-10-11T02:48:16.585Z,19.33
2018-10-11T02:50:45.374Z,24.03
2018-10-11T02:53:14.100Z,23.13
2018-10-11T02:55:42.958Z,23.43
2018-10-11T02:58:22.796Z,18.77
2018-10-11T03:00:51.637Z,22.37
2018-10-11T03:03:22.677Z,26.30
2018-10-11T03:05:51.942Z,22.60
2018-10-11T03:08:22.494Z,27.10
2018-10-11T03:10:51.804Z,25.23
2018-10-11T03:13:20.645Z,22.93
2018-10-11T03:15:49.486Z,23.30
2018-10-11T03:18:19.062Z,21.70
2018-10-11T03:20:47.844Z,24.20
2018-10-11T03:23:16.693Z,20.00
2018-10-11T03:25:46.405Z,21.13
2018-10-11T03:28:16.464Z,22.63
2018-10-11T03:30:45.455Z,21.53
2018-10-11T03:33:15.065Z,21.90
2018-10-11T03:35:44.653Z,20.53
2018-10-11T03:38:13.787Z,20.67
2018-10-11T03:40:42.944Z,23.07
2018-10-11T03:43:11.753Z,27.10
2018-10-11T03:45:40.516Z,24.17
2018-10-11T03:48:09.509Z,23.03
2018-10-11T03:50:38.252Z,22.23
2018-10-11T03:53:07.538Z,22.53
2018-10-11T03:55:36.366Z,23.27
2018-10-11T03:58:05.325Z,22.13
2018-10-11T04:00:34.233Z,22.77
2018-10-11T04:03:03.441Z,21.77
2018-10-11T04:05:32.357Z,21.57
2018-10-11T04:08:01.247Z,22.77
2018-10-11T04:10:30.072Z,20.43
2018-10-11T04:12:59.109Z,26.50
2018-10-11T04:15:30.853Z,28.23
2018-10-11T04:17:59.749Z,23.50
2018-10-11T04:20:28.498Z,25.87
2018-10-11T04:22:57.252Z,23.73
2018-10-11T04:25:27.123Z,25.67
2018-10-11T04:27:55.919Z,24.73
2018-10-11T04:30:25.241Z,29.83
2018-10-11T04:32:55.071Z,25.47
2018-10-11T04:35:23.872Z,32.27
2018-10-11T04:37:52.702Z,21.63
2018-10-11T04:40:21.525Z,27.93
2018-10-11T04:42:50.501Z,26.23
2018-10-11T04:45:19.336Z,29.07
2018-10-11T04:47:48.153Z,32.07
2018-10-11T04:50:17.133Z,24.83
2018-10-11T04:52:46.066Z,23.90
2018-10-11T04:55:14.886Z,29.33
2018-10-11T04:57:43.701Z,29.47
2018-10-11T05:00:14.001Z,25.57
2018-10-11T05:02:42.777Z,26.20
2018-10-11T05:05:11.639Z,44.50
2018-10-11T05:07:40.571Z,35.60
2018-10-11T05:10:09.470Z,29.53
2018-10-11T05:12:38.313Z,26.50
2018-10-11T05:15:07.762Z,33.50
2018-10-11T05:17:36.674Z,33.63
2018-10-11T05:20:05.627Z,28.57
2018-10-11T05:22:34.653Z,35.30
2018-10-11T05:25:03.445Z,28.33
2018-10-11T05:27:32.654Z,33.13
2018-10-11T05:30:01.905Z,30.33
2018-10-11T05:32:31.126Z,35.33
2018-10-11T05:35:00.038Z,30.43
2018-10-11T05:37:29.216Z,31.83
2018-10-11T05:39:58.266Z,33.07
2018-10-11T05:42:27.276Z,35.97
2018-10-11T05:45:04.022Z,32.20
2018-10-11T05:47:33.016Z,29.80
2018-10-11T05:50:02.297Z,28.90
2018-10-11T05:52:31.179Z,28.00
2018-10-11T05:54:59.971Z,30.77
2018-10-11T05:57:28.901Z,32.47
2018-10-11T05:59:58.053Z,28.73
2018-10-11T06:02:27.444Z,35.00
2018-10-11T06:04:56.744Z,37.03
2018-10-11T06:07:25.755Z,38.63
2018-10-11T06:09:54.767Z,37.07
2018-10-11T06:12:23.778Z,32.37
2018-10-11T06:14:53.094Z,32.17
2018-10-11T06:17:22.373Z,28.50
2018-10-11T06:19:51.578Z,35.60
2018-10-11T06:22:20.459Z,42.27
2018-10-11T06:24:49.837Z,32.97
2018-10-11T06:27:18.862Z,40.00
2018-10-11T06:29:47.829Z,44.37
2018-10-11T06:32:16.701Z,30.37
2018-10-11T06:34:45.593Z,36.27
2018-10-11T06:37:14.851Z,37.60
2018-10-11T06:39:43.721Z,44.37
2018-10-11T06:42:12.818Z,44.17
2018-10-11T06:44:41.929Z,43.53
2018-10-11T06:47:10.868Z,44.33
2018-10-11T06:49:40.117Z,42.57
2018-10-11T06:52:09.311Z,42.70
2018-10-11T06:54:38.187Z,43.37
2018-10-11T06:57:07.617Z,46.23
2018-10-11T06:59:36.548Z,45.33
2018-10-11T07:02:05.756Z,42.37
2018-10-11T07:04:34.623Z,41.40
2018-10-11T07:07:03.504Z,41.83
2018-10-11T07:09:32.271Z,39.60
2018-10-11T07:12:01.115Z,42.10
2018-10-11T07:14:29.931Z,35.80
2018-10-11T07:16:58.746Z,39.93
2018-10-11T07:19:27.659Z,36.57
2018-10-11T07:21:58.852Z,36.67
2018-10-11T07:24:27.673Z,38.27
2018-10-11T07:26:56.454Z,37.77
2018-10-11T07:29:25.320Z,37.77
2018-10-11T07:31:54.043Z,39.60
2018-10-11T07:34:22.820Z,28.93
2018-10-11T07:36:51.836Z,34.90
2018-10-11T07:39:20.594Z,35.00
2018-10-11T07:41:49.367Z,29.40
2018-10-11T07:44:18.123Z,35.47
2018-10-11T07:46:46.967Z,36.07
2018-10-11T07:49:15.729Z,34.77
2018-10-11T07:51:44.524Z,34.73
2018-10-11T07:54:13.316Z,37.83
2018-10-11T07:56:42.061Z,33.33
2018-10-11T07:59:10.863Z,31.57
2018-10-11T08:01:39.674Z,34.20
2018-10-11T08:04:08.599Z,36.43
2018-10-11T08:06:37.358Z,34.30
2018-10-11T08:09:07.907Z,34.20
2018-10-11T08:11:36.883Z,31.70
2018-10-11T08:14:05.922Z,37.13
2018-10-11T08:16:34.811Z,28.70
2018-10-11T08:19:04.014Z,28.87
2018-10-11T08:21:32.733Z,28.17
2018-10-11T08:24:01.827Z,32.77
2018-10-11T08:26:31.041Z,29.97
2018-10-11T08:28:59.686Z,29.80
2018-10-11T08:31:28.413Z,27.67
2018-10-11T08:33:57.242Z,33.90
2018-10-11T08:36:26.033Z,30.87
2018-10-11T08:38:54.886Z,32.40
2018-10-11T08:41:23.679Z,28.57
2018-10-11T08:43:52.481Z,28.33
2018-10-11T08:46:21.462Z,31.67
2018-10-11T08:48:50.141Z,36.20
2018-10-11T08:51:18.893Z,29.83
2018-10-11T08:53:47.759Z,29.63
2018-10-11T08:56:16.761Z,28.20
2018-10-11T08:58:45.528Z,25.87
2018-10-11T09:01:14.302Z,29.63
2018-10-11T09:03:43.165Z,26.00
2018-10-11T09:06:12.156Z,26.87
2018-10-11T09:08:41.031Z,22.40
2018-10-11T09:11:09.837Z,20.80
2018-10-11T09:13:38.828Z,21.37
2018-10-11T09:16:07.610Z,22.00
2018-10-11T09:18:36.397Z,20.00
2018-10-11T09:21:05.170Z,20.27
2018-10-11T09:23:33.932Z,23.77
2018-10-11T09:26:02.681Z,20.83
2018-10-11T09:28:31.466Z,19.53
2018-10-11T09:31:00.274Z,19.63
2018-10-11T09:33:29.107Z,21.87
2018-10-11T09:35:57.922Z,24.33
2018-10-11T09:38:27.459Z,20.80
2018-10-11T09:40:56.285Z,31.93
2018-10-11T09:43:25.045Z,23.37
2018-10-11T09:45:53.907Z,16.83
2018-10-11T09:48:22.643Z,19.03
2018-10-11T09:50:51.431Z,16.30
2018-10-11T09:53:20.170Z,19.50
2018-10-11T09:55:48.998Z,15.63
2018-10-11T09:58:17.745Z,22.13
2018-10-11T10:00:51.741Z,23.83
2018-10-11T10:03:20.545Z,16.63
2018-10-11T10:05:49.319Z,18.60
2018-10-11T10:08:18.028Z,16.07
2018-10-11T10:10:46.788Z,15.30
2018-10-11T10:13:15.530Z,17.13
2018-10-11T10:15:44.548Z,17.30
2018-10-11T10:18:13.403Z,17.00
2018-10-11T10:20:42.178Z,16.83
2018-10-11T10:23:11.041Z,16.80
2018-10-11T10:25:39.969Z,19.07
2018-10-11T10:28:08.980Z,19.23
2018-10-11T10:30:42.878Z,19.63
2018-10-11T10:33:11.631Z,19.20
2018-10-11T10:35:40.366Z,17.37
2018-10-11T10:38:09.535Z,19.93
2018-10-11T10:40:38.342Z,18.80
2018-10-11T10:43:07.119Z,21.33
2018-10-11T10:45:35.845Z,16.53
2018-10-11T10:48:04.575Z,19.07
2018-10-11T10:50:33.350Z,19.03
2018-10-11T10:53:02.102Z,14.33
2018-10-11T10:55:30.854Z,16.00
2018-10-11T10:57:59.606Z,15.73
2018-10-11T11:00:28.430Z,13.57
2018-10-11T11:02:57.180Z,14.57
2018-10-11T11:05:25.936Z,13.57
2018-10-11T11:07:54.759Z,15.40
2018-10-11T11:10:23.473Z,15.90
2018-10-11T11:12:52.234Z,14.03
2018-10-11T11:15:21.687Z,13.20
2018-10-11T11:17:50.459Z,14.40
2018-10-11T11:20:19.179Z,12.30
2018-10-11T11:22:48.096Z,17.77
2018-10-11T11:25:16.883Z,15.87
2018-10-11T11:27:45.822Z,16.23
2018-10-11T11:30:14.570Z,17.67
2018-10-11T11:32:43.271Z,16.60
2018-10-11T11:35:12.079Z,18.07
2018-10-11T11:37:40.800Z,16.30
2018-10-11T11:40:09.538Z,15.60
2018-10-11T11:42:38.471Z,20.57
2018-10-11T11:45:07.243Z,15.33
2018-10-11T11:47:36.016Z,17.17
2018-10-11T11:50:04.889Z,18.30
2018-10-11T11:52:33.619Z,18.33
2018-10-11T11:55:02.374Z,15.13
2018-10-11T11:57:31.115Z,17.47
2018-10-11T12:00:00.002Z,16.83
2018-10-11T12:02:28.740Z,14.53
2018-10-11T12:04:57.676Z,15.40
2018-10-11T12:07:26.649Z,13.97
2018-10-11T12:09:55.346Z,14.50
2018-10-11T12:13:01.402Z,12.90
2018-10-11T12:15:31.055Z,11.70
2018-10-11T12:18:01.026Z,20.07
2018-10-11T12:20:31.965Z,15.83
2018-10-11T12:23:01.999Z,15.13
2018-10-11T12:25:31.148Z,12.13
2018-10-11T12:27:59.971Z,13.73
2018-10-11T12:30:28.791Z,13.90
2018-10-11T12:32:57.553Z,12.50
2018-10-11T12:35:27.086Z,15.10
2018-10-11T12:37:55.844Z,16.33
2018-10-11T12:40:24.634Z,13.77
2018-10-11T12:42:53.399Z,12.80
2018-10-11T12:45:22.282Z,11.47
2018-10-11T12:47:51.504Z,11.57
2018-10-11T12:50:20.582Z,12.73
2018-10-11T12:52:49.399Z,18.57
2018-10-11T12:55:18.189Z,13.47
2018-10-11T12:57:46.902Z,15.20
2018-10-11T13:00:16.932Z,17.80
2018-10-11T13:02:45.940Z,18.67
2018-10-11T13:05:14.861Z,14.17
2018-10-11T13:07:43.604Z,20.77
2018-10-11T13:10:12.366Z,18.60
2018-10-11T13:12:41.145Z,13.60
2018-10-11T13:15:10.015Z,19.87
2018-10-11T13:17:42.817Z,14.00
2018-10-11T13:20:08.423Z,15.40
2018-10-11T13:22:37.205Z,18.70
2018-10-11T13:25:06.198Z,17.87
2018-10-11T13:27:34.957Z,22.53
2018-10-11T13:30:04.918Z,17.57
2018-10-11T13:32:33.639Z,22.73
2018-10-11T13:35:02.362Z,18.20
2018-10-11T13:37:31.237Z,15.50
2018-10-11T13:39:59.958Z,14.90
2018-10-11T13:42:28.719Z,18.23
2018-10-11T13:44:57.559Z,19.43
2018-10-11T13:47:26.505Z,12.47
2018-10-11T13:49:55.408Z,22.23
2018-10-11T13:52:24.158Z,13.60
2018-10-11T13:54:52.850Z,16.30
2018-10-11T13:57:25.120Z,15.60
2018-10-11T13:59:50.501Z,17.60
2018-10-11T14:02:19.214Z,17.17
2018-10-11T14:04:47.941Z,15.07
2018-10-11T14:07:17.727Z,16.10
2018-10-11T14:09:46.918Z,17.17
2018-10-11T14:12:15.676Z,20.27
2018-10-11T14:14:44.451Z,25.83
2018-10-11T14:17:14.414Z,22.43
2018-10-11T14:19:43.257Z,23.10
2018-10-11T14:22:17.458Z,17.37
2018-10-11T14:24:47.259Z,20.57
2018-10-11T14:27:18.678Z,18.70
2018-10-11T14:29:47.479Z,16.37
2018-10-11T14:32:16.191Z,17.57
2018-10-11T14:34:44.942Z,21.50
2018-10-11T14:37:14.068Z,17.60
2018-10-11T14:39:42.886Z,18.23
2018-10-11T14:42:12.165Z,17.23
2018-10-11T14:44:45.033Z,15.37
2018-10-11T14:47:14.374Z,22.27
2018-10-11T14:49:43.325Z,17.67
2018-10-11T14:52:12.772Z,22.20
2018-10-11T14:54:41.900Z,19.13
2018-10-11T14:57:13.309Z,22.73
2018-10-11T14:59:45.433Z,19.63
2018-10-11T15:02:14.235Z,22.00
2018-10-11T15:04:45.558Z,18.27
2018-10-11T15:07:15.222Z,18.53
2018-10-11T15:09:43.903Z,24.67
2018-10-11T15:12:12.867Z,14.73
2018-10-11T15:14:41.607Z,15.70
2018-10-11T15:17:10.327Z,20.30
2018-10-11T15:19:39.022Z,17.70
2018-10-11T15:22:07.737Z,15.80
2018-10-11T15:24:36.655Z,20.57
2018-10-11T15:27:05.406Z,16.67
2018-10-11T15:29:34.136Z,21.40
2018-10-11T15:32:03.093Z,14.10
2018-10-11T15:34:31.790Z,20.57
2018-10-11T15:37:00.640Z,20.90
2018-10-11T15:39:29.375Z,15.47
2018-10-11T15:41:58.208Z,20.53
2018-10-11T15:44:26.969Z,21.07
2018-10-11T15:46:55.782Z,19.73
2018-10-11T15:49:24.758Z,15.47
2018-10-11T15:51:53.508Z,23.40
2018-10-11T15:54:22.240Z,19.73
2018-10-11T15:56:50.957Z,22.60
2018-10-11T15:59:19.699Z,19.83
2018-10-11T16:01:48.504Z,18.87
2018-10-11T16:04:17.329Z,20.53
2018-10-11T16:06:46.064Z,27.93
2018-10-11T16:09:14.883Z,24.37
2018-10-11T16:11:43.804Z,24.63
2018-10-11T16:14:12.532Z,21.63
2018-10-11T16:16:41.279Z,22.17
2018-10-11T16:19:10.051Z,20.50
2018-10-11T16:21:38.754Z,24.93
2018-10-11T16:24:07.543Z,25.37
2018-10-11T16:26:36.276Z,20.87
2018-10-11T16:29:05.044Z,22.70
2018-10-11T16:31:33.856Z,31.83
2018-10-11T16:34:02.622Z,24.63
2018-10-11T16:36:31.408Z,25.67
2018-10-11T16:39:00.287Z,30.50
2018-10-11T16:41:29.038Z,37.77
2018-10-11T16:43:58.005Z,26.30
2018-10-11T16:46:26.800Z,25.53
2018-10-11T16:48:55.552Z,22.53
2018-10-11T16:51:24.267Z,24.37
2018-10-11T16:53:53.183Z,21.90
2018-10-11T16:56:22.024Z,27.03
2018-10-11T16:58:50.757Z,24.83
2018-10-11T17:01:19.591Z,27.13
2018-10-11T17:03:48.388Z,28.30
2018-10-11T17:06:17.142Z,21.33
2018-10-11T17:08:45.838Z,21.93
2018-10-11T17:11:14.519Z,23.90
2018-10-11T17:13:43.290Z,28.57
2018-10-11T17:16:12.003Z,25.10
2018-10-11T17:18:40.791Z,22.27
2018-10-11T17:21:09.994Z,22.20
2018-10-11T17:23:38.714Z,24.70
2018-10-11T17:26:07.586Z,29.93
2018-10-11T17:28:40.309Z,27.07
2018-10-11T17:31:09.123Z,22.30
2018-10-11T17:33:37.867Z,23.97
2018-10-11T17:36:06.649Z,25.17
2018-10-11T17:38:35.449Z,25.20
2018-10-11T17:41:04.521Z,28.57
2018-10-11T17:43:33.349Z,30.37
2018-10-11T17:46:02.845Z,26.70
2018-10-11T17:48:31.648Z,24.17
2018-10-11T17:51:00.347Z,21.33
2018-10-11T17:53:29.151Z,22.97
2018-10-11T17:55:57.943Z,20.43
2018-10-11T17:58:26.696Z,25.37
2018-10-11T18:00:55.438Z,23.50
2018-10-11T18:03:24.228Z,27.17
2018-10-11T18:05:53.078Z,30.97
2018-10-11T18:08:21.856Z,24.13
2018-10-11T18:10:50.570Z,21.77
2018-10-11T18:13:19.620Z,19.00
2018-10-11T18:15:48.415Z,24.90
2018-10-11T18:18:17.263Z,21.30
2018-10-11T18:20:46.037Z,24.70
2018-10-11T18:23:14.772Z,20.07
2018-10-11T18:25:43.535Z,22.87
2018-10-11T18:28:12.256Z,22.27
2018-10-11T18:30:41.048Z,19.47
2018-10-11T18:33:09.764Z,22.10
2018-10-11T18:35:38.568Z,23.47
2018-10-11T18:38:07.515Z,19.90
2018-10-11T18:40:36.265Z,23.07
2018-10-11T18:43:05.042Z,23.90
2018-10-11T18:45:33.866Z,20.20
2018-10-11T18:48:02.581Z,20.20
2018-10-11T18:50:31.446Z,22.80
2018-10-11T18:53:00.179Z,24.13
2018-10-11T18:55:29.022Z,23.33
2018-10-11T18:57:57.771Z,21.53
2018-10-11T19:00:26.740Z,24.87
2018-10-11T19:02:55.499Z,23.30
2018-10-11T19:05:24.291Z,21.60
2018-10-11T19:07:53.041Z,21.47
2018-10-11T19:10:21.832Z,27.17
2018-10-11T19:12:50.591Z,24.13
2018-10-11T19:15:19.353Z,25.00
2018-10-11T19:17:48.087Z,23.27
2018-10-11T19:20:16.891Z,24.00
2018-10-11T19:22:45.885Z,31.07
2018-10-11T19:25:14.702Z,21.43
2018-10-11T19:27:43.431Z,23.70
2018-10-11T19:30:12.158Z,21.43
2018-10-11T19:32:40.943Z,21.23
2018-10-11T19:35:09.796Z,24.70
2018-10-11T19:37:38.587Z,22.63
2018-10-11T19:40:07.344Z,27.30
2018-10-11T19:42:36.087Z,22.47
2018-10-11T19:45:04.931Z,27.40
2018-10-11T19:47:33.605Z,26.73
2018-10-11T19:50:02.435Z,23.80
2018-10-11T19:52:31.166Z,19.80
2018-10-11T19:54:59.871Z,18.20
2018-10-11T19:57:28.702Z,20.67
2018-10-11T19:59:57.415Z,21.60
2018-10-11T20:02:26.150Z,18.27
2018-10-11T20:04:54.910Z,21.83
2018-10-11T20:07:23.627Z,21.70
2018-10-11T20:09:52.351Z,19.57
2018-10-11T20:12:21.081Z,21.67
2018-10-11T20:14:49.793Z,19.07
2018-10-11T20:17:18.699Z,18.83
2018-10-11T20:19:47.527Z,23.93
2018-10-11T20:22:16.358Z,19.47
2018-10-11T20:24:45.119Z,22.60
2018-10-11T20:27:13.823Z,21.93
2018-10-11T20:29:42.605Z,19.87
2018-10-11T20:32:12.154Z,20.13
2018-10-11T20:34:40.902Z,18.67
2018-10-11T20:37:09.693Z,21.23
2018-10-11T20:39:38.434Z,18.57
2018-10-11T20:42:07.310Z,21.23
2018-10-11T20:44:36.027Z,22.03
2018-10-11T20:47:04.847Z,19.50
2018-10-11T20:49:33.618Z,19.03
2018-10-11T20:52:02.374Z,21.00
2018-10-11T20:54:31.250Z,24.03
2018-10-11T20:56:59.974Z,21.30
2018-10-11T20:59:28.665Z,21.13
2018-10-11T21:01:57.378Z,19.70
2018-10-11T21:04:26.065Z,19.93
2018-10-11T21:06:55.068Z,19.50
2018-10-11T21:09:23.968Z,19.17
2018-10-11T21:11:52.897Z,25.07
2018-10-11T21:14:21.895Z,23.73
2018-10-11T21:16:50.752Z,20.77
2018-10-11T21:19:19.679Z,20.93
2018-10-11T21:21:48.642Z,20.80
2018-10-11T21:24:17.467Z,26.33
2018-10-11T21:26:46.360Z,17.63
2018-10-11T21:29:15.216Z,21.30
2018-10-11T21:31:44.084Z,24.20
2018-10-11T21:34:13.046Z,19.93
2018-10-11T21:36:42.120Z,21.83
2018-10-11T21:39:12.783Z,20.57
2018-10-11T21:41:42.201Z,22.43
2018-10-11T21:44:12.048Z,24.37
2018-10-11T21:46:41.060Z,21.70
2018-10-11T21:49:10.272Z,24.90
2018-10-11T21:51:39.178Z,32.83
2018-10-11T21:54:08.118Z,22.73
2018-10-11T21:56:37.023Z,25.90
2018-10-11T21:59:05.892Z,22.13
2018-10-11T22:01:34.851Z,27.73
2018-10-11T22:04:03.826Z,20.60
2018-10-11T22:06:32.687Z,25.03
2018-10-11T22:09:01.636Z,23.77
2018-10-11T22:11:30.524Z,20.90
2018-10-11T22:13:59.448Z,26.77
2018-10-11T22:16:28.710Z,24.37
2018-10-11T22:18:57.641Z,24.67
2018-10-11T22:21:26.568Z,22.60
2018-10-11T22:23:55.452Z,21.63
2018-10-11T22:26:24.315Z,23.97
2018-10-11T22:28:53.223Z,24.37
2018-10-11T22:31:22.115Z,21.90
2018-10-11T22:33:51.096Z,21.90
2018-10-11T22:36:20.070Z,25.93
2018-10-11T22:38:48.867Z,21.70
2018-10-11T22:41:17.867Z,20.23
2018-10-11T22:43:46.707Z,25.03
2018-10-11T22:46:15.954Z,19.23
2018-10-11T22:48:44.972Z,19.17
2018-10-11T22:51:13.939Z,17.83
2018-10-11T22:53:43.218Z,20.80
2018-10-11T22:56:12.089Z,20.47
2018-10-11T22:58:41.364Z,16.63
2018-10-11T23:01:10.086Z,18.60
2018-10-11T23:03:39.139Z,21.00
2018-10-11T23:06:07.897Z,17.30
2018-10-11T23:08:36.863Z,19.60
2018-10-11T23:11:05.581Z,19.17
2018-10-11T23:13:34.355Z,18.70
2018-10-11T23:16:03.034Z,22.00
2018-10-11T23:18:31.918Z,22.93
2018-10-11T23:21:00.710Z,20.50
2018-10-11T23:23:29.446Z,20.53
2018-10-11T23:25:58.270Z,21.43
2018-10-11T23:28:27.038Z,22.87
2018-10-11T23:30:55.767Z,21.93
2018-10-11T23:33:24.487Z,21.10
2018-10-11T23:35:53.255Z,22.47
2018-10-11T23:38:22.010Z,22.20
2018-10-11T23:40:50.734Z,23.57
2018-10-11T23:43:19.499Z,23.93
2018-10-11T23:45:48.254Z,17.90
2018-10-11T23:48:17.018Z,18.97
2018-10-11T23:50:45.739Z,20.57
2018-10-11T23:53:14.486Z,17.73
2018-10-11T23:55:43.347Z,20.73
2018-10-11T23:58:12.092Z,17.33
